createdAt,value
2022-09-07T00:01:22.166Z,34.70
2022-09-07T00:03:50.806Z,35.75
2022-09-07T00:06:18.844Z,35.16
2022-09-07T00:08:47.265Z,36.33
2022-09-07T00:11:18.870Z,34.80
2022-09-07T00:13:50.173Z,35.19
2022-09-07T00:16:24.304Z,34.91
2022-09-07T00:18:57.126Z,34.95
2022-09-07T00:21:25.719Z,35.08
2022-09-07T00:23:55.557Z,35.20
2022-09-07T00:26:26.708Z,34.89
2022-09-07T00:29:02.450Z,36.06
2022-09-07T00:31:32.352Z,35.38
2022-09-07T00:34:02.956Z,36.05
2022-09-07T00:36:32.061Z,35.64
2022-09-07T00:39:00.481Z,35.92
2022-09-07T00:41:29.156Z,36.06
2022-09-07T00:44:01.063Z,36.06
2022-09-07T00:46:33.422Z,35.89
2022-09-07T00:49:09.577Z,36.03
2022-09-07T00:51:43.878Z,36.33
2022-09-07T00:54:23.530Z,36.27
2022-09-07T00:56:55.017Z,35.94
2022-09-07T00:59:29.619Z,35.89
2022-09-07T01:01:58.722Z,36.61
2022-09-07T01:04:27.838Z,36.59
2022-09-07T01:06:57.516Z,37.36
2022-09-07T01:09:27.260Z,36.54
2022-09-07T01:11:59.234Z,36.79
2022-09-07T01:14:51.725Z,37.18
2022-09-07T01:17:38.571Z,36.99
2022-09-07T01:20:52.794Z,37.26
2022-09-07T01:23:29.633Z,37.50
2022-09-07T01:26:07.010Z,37.33
2022-09-07T01:28:37.156Z,37.66
2022-09-07T01:31:29.613Z,38.45
2022-09-07T01:33:58.337Z,37.99
2022-09-07T01:36:47.101Z,37.80
2022-09-07T01:39:16.280Z,38.03
2022-09-07T01:41:53.585Z,37.87
2022-09-07T01:44:48.041Z,38.24
2022-09-07T01:47:31.188Z,38.10
2022-09-07T01:50:17.156Z,38.54
2022-09-07T01:52:48.554Z,38.53
2022-09-07T01:55:25.979Z,38.87
2022-09-07T01:58:02.429Z,38.65
2022-09-07T02:00:32.937Z,38.55
2022-09-07T02:03:08.982Z,39.05
2022-09-07T02:05:49.450Z,39.05
2022-09-07T02:08:26.121Z,38.89
2022-09-07T02:11:05.308Z,39.07
2022-09-07T02:13:44.578Z,39.63
2022-09-07T02:16:20.868Z,39.62
2022-09-07T02:18:55.388Z,39.90
2022-09-07T02:21:29.754Z,40.06
2022-09-07T02:24:07.300Z,40.33
2022-09-07T02:26:40.175Z,40.75
2022-09-07T02:29:09.000Z,40.92
2022-09-07T02:31:37.862Z,40.96
2022-09-07T02:34:06.710Z,41.05
2022-09-07T02:36:43.447Z,41.21
2022-09-07T02:39:12.067Z,41.61
2022-09-07T02:41:43.634Z,41.79
2022-09-07T02:44:25.249Z,41.60
2022-09-07T02:47:17.275Z,41.42
2022-09-07T02:50:19.909Z,41.52
2022-09-07T02:53:23.761Z,41.59
2022-09-07T02:56:24.444Z,41.49
2022-09-07T02:59:23.352Z,41.96
2022-09-07T03:01:59.040Z,42.59
2022-09-07T03:04:36.563Z,42.39
2022-09-07T03:07:17.187Z,42.97
2022-09-07T03:09:51.646Z,42.61
2022-09-07T03:12:20.388Z,43.32
2022-09-07T03:14:49.069Z,42.89
2022-09-07T03:17:18.437Z,43.55
2022-09-07T03:19:47.901Z,43.74
2022-09-07T03:22:16.587Z,43.65
2022-09-07T03:24:45.231Z,44.29
2022-09-07T03:27:13.290Z,44.12
2022-09-07T03:29:42.239Z,43.99
2022-09-07T03:32:10.950Z,44.20
2022-09-07T03:34:39.666Z,44.41
2022-09-07T03:37:08.354Z,44.70
2022-09-07T03:39:37.997Z,44.81
2022-09-07T03:42:06.794Z,45.00
2022-09-07T03:44:34.796Z,45.58
2022-09-07T03:47:03.645Z,45.71
2022-09-07T03:49:32.058Z,46.02
2022-09-07T03:52:00.534Z,45.92
2022-09-07T03:54:29.145Z,45.88
2022-09-07T03:56:57.835Z,45.95
2022-09-07T03:59:26.484Z,46.01
2022-09-07T04:01:55.185Z,46.20
2022-09-07T04:04:23.929Z,46.01
2022-09-07T04:06:52.574Z,46.08
2022-09-07T04:09:21.227Z,46.54
2022-09-07T04:11:50.055Z,46.29
2022-09-07T04:14:19.211Z,46.66
2022-09-07T04:16:47.691Z,46.46
2022-09-07T04:19:16.213Z,46.56
2022-09-07T04:21:48.026Z,46.85
2022-09-07T04:24:17.711Z,46.75
2022-09-07T04:26:46.150Z,46.82
2022-09-07T04:29:15.229Z,46.92
2022-09-07T04:31:43.937Z,47.08
2022-09-07T04:34:13.543Z,46.89
2022-09-07T04:36:42.178Z,47.14
2022-09-07T04:39:12.883Z,47.18
2022-09-07T04:41:41.508Z,47.00
2022-09-07T04:44:16.147Z,47.21
2022-09-07T04:46:45.695Z,47.34
2022-09-07T04:49:15.010Z,47.36
2022-09-07T04:51:45.605Z,47.52
2022-09-07T04:54:14.303Z,47.79
2022-09-07T04:56:42.937Z,47.75
2022-09-07T04:59:11.094Z,48.07
2022-09-07T05:01:39.920Z,48.35
2022-09-07T05:04:08.608Z,48.08
2022-09-07T05:06:37.060Z,48.39
2022-09-07T05:09:05.501Z,48.17
2022-09-07T05:11:34.248Z,48.38
2022-09-07T05:14:04.924Z,48.43
2022-09-07T05:16:33.066Z,48.74
2022-09-07T05:19:04.651Z,48.79
2022-09-07T05:21:35.709Z,49.19
2022-09-07T05:24:05.543Z,49.31
2022-09-07T05:26:36.664Z,49.51
2022-09-07T05:31:56.261Z,49.93
2022-09-07T05:36:57.101Z,49.98
2022-09-07T05:39:26.069Z,50.86
2022-09-07T05:41:55.385Z,50.62
2022-09-07T05:47:13.506Z,50.43
2022-09-07T05:49:42.139Z,50.63
2022-09-07T05:52:10.849Z,50.93
2022-09-07T05:54:39.618Z,50.92
2022-09-07T05:57:09.002Z,50.94
2022-09-07T05:59:37.694Z,50.90
2022-09-07T06:02:06.602Z,50.98
2022-09-07T06:04:35.426Z,51.11
2022-09-07T06:07:22.157Z,50.98
2022-09-07T06:12:40.234Z,51.36
2022-09-07T06:15:10.144Z,51.28
2022-09-07T06:17:38.924Z,51.73
2022-09-07T06:20:09.124Z,51.58
2022-09-07T06:22:38.772Z,51.89
2022-09-07T06:25:07.723Z,52.06
2022-09-07T06:27:36.444Z,52.08
2022-09-07T06:30:06.478Z,52.23
2022-09-07T06:35:12.245Z,52.54
2022-09-07T06:37:41.288Z,53.12
2022-09-07T06:40:11.801Z,53.05
2022-09-07T06:42:40.752Z,53.43
2022-09-07T06:45:11.935Z,53.40
2022-09-07T06:47:41.293Z,54.32
2022-09-07T06:50:11.086Z,54.08
2022-09-07T06:55:29.477Z,54.22
2022-09-07T06:57:58.379Z,54.83
2022-09-07T07:00:27.391Z,54.17
2022-09-07T07:02:55.859Z,53.87
2022-09-07T07:05:24.514Z,54.16
2022-09-07T07:07:53.173Z,53.84
2022-09-07T07:10:24.739Z,54.12
2022-09-07T07:12:58.643Z,54.51
2022-09-07T07:15:29.989Z,54.40
2022-09-07T07:18:09.519Z,54.94
2022-09-07T07:20:48.243Z,54.55
2022-09-07T07:23:16.890Z,55.14
2022-09-07T07:25:45.788Z,55.25
2022-09-07T07:31:09.082Z,55.67
2022-09-07T07:33:39.978Z,55.01
2022-09-07T07:36:14.647Z,55.17
2022-09-07T07:39:01.463Z,55.04
2022-09-07T07:44:22.063Z,54.40
2022-09-07T07:46:53.797Z,54.51
2022-09-07T07:49:22.698Z,54.79
2022-09-07T07:54:38.676Z,54.71
2022-09-07T07:57:08.065Z,54.80
2022-09-07T07:59:37.223Z,55.22
2022-09-07T08:02:08.060Z,54.60
2022-09-07T08:04:37.714Z,54.42
2022-09-07T08:07:10.788Z,54.34
2022-09-07T08:09:44.951Z,54.34
2022-09-07T08:12:18.307Z,54.59
2022-09-07T08:14:48.880Z,54.82
2022-09-07T08:17:19.306Z,55.15
2022-09-07T08:19:49.083Z,55.10
2022-09-07T08:22:17.738Z,54.66
2022-09-07T08:24:46.315Z,55.17
2022-09-07T08:27:15.355Z,55.28
2022-09-07T08:29:44.591Z,55.65
2022-09-07T08:32:13.513Z,55.92
2022-09-07T08:34:42.520Z,55.98
2022-09-07T08:37:11.186Z,56.39
2022-09-07T08:39:40.177Z,56.01
2022-09-07T08:42:42.379Z,56.77
2022-09-07T08:45:22.746Z,57.81
2022-09-07T08:47:53.715Z,57.57
2022-09-07T08:50:43.617Z,57.01
2022-09-07T08:53:18.029Z,57.04
2022-09-07T08:56:07.861Z,56.17
2022-09-07T08:58:49.581Z,55.64
2022-09-07T09:01:31.316Z,55.16
2022-09-07T09:04:16.972Z,55.71
2022-09-07T09:06:55.802Z,55.57
2022-09-07T09:09:30.817Z,55.35
2022-09-07T09:12:46.679Z,55.86
2022-09-07T09:15:24.867Z,56.38
2022-09-07T09:18:17.030Z,56.45
2022-09-07T09:20:52.924Z,57.03
2022-09-07T09:23:26.335Z,57.20
2022-09-07T09:26:03.678Z,57.35
2022-09-07T09:28:32.734Z,57.26
2022-09-07T09:31:01.758Z,57.73
2022-09-07T09:33:31.179Z,58.12
2022-09-07T09:36:04.135Z,58.29
2022-09-07T09:38:41.274Z,58.86
2022-09-07T09:41:18.029Z,58.37
2022-09-07T09:44:00.003Z,58.87
2022-09-07T09:46:39.133Z,58.89
2022-09-07T09:49:35.098Z,59.29
2022-09-07T09:55:17.287Z,60.17
2022-09-07T10:06:24.248Z,60.53
2022-09-07T10:09:17.553Z,60.11
2022-09-07T10:12:08.972Z,61.01
2022-09-07T10:14:48.912Z,60.85
2022-09-07T10:17:34.457Z,61.71
2022-09-07T10:20:17.418Z,61.85
2022-09-07T10:22:56.137Z,62.80
2022-09-07T10:25:38.378Z,63.41
2022-09-07T10:28:14.399Z,64.65
2022-09-07T10:31:02.026Z,64.07
2022-09-07T10:37:23.086Z,65.23
2022-09-07T10:40:01.125Z,65.59
2022-09-07T10:42:33.610Z,67.71
2022-09-07T10:45:20.336Z,69.22
2022-09-07T10:47:51.871Z,69.88
2022-09-07T10:50:34.262Z,70.17
2022-09-07T10:53:44.867Z,69.14
2022-09-07T10:56:37.507Z,69.08
2022-09-07T10:59:18.256Z,69.83
2022-09-07T11:01:56.506Z,69.89
2022-09-07T11:04:25.489Z,70.37
2022-09-07T11:07:05.119Z,71.07
2022-09-07T11:09:41.135Z,71.21
2022-09-07T11:12:36.174Z,71.94
2022-09-07T11:15:14.483Z,72.09
2022-09-07T11:18:38.601Z,72.66
2022-09-07T11:21:55.963Z,71.39
2022-09-07T11:24:13.396Z,70.53
2022-09-07T11:26:50.577Z,70.41
2022-09-07T11:29:32.401Z,71.34
2022-09-07T11:32:06.549Z,71.39
2022-09-07T11:34:56.890Z,71.68
2022-09-07T11:37:33.880Z,72.29
2022-09-07T11:40:28.716Z,73.05
2022-09-07T11:43:19.689Z,72.37
2022-09-07T11:45:58.821Z,72.90
2022-09-07T11:48:48.431Z,73.44
2022-09-07T11:51:28.512Z,73.98
2022-09-07T11:54:04.088Z,73.97
2022-09-07T11:56:45.516Z,74.18
2022-09-07T11:59:36.922Z,74.54
2022-09-07T12:02:32.200Z,76.10
2022-09-07T12:05:15.538Z,76.09
2022-09-07T12:08:13.325Z,76.46
2022-09-07T12:10:59.052Z,76.40
2022-09-07T12:14:10.079Z,76.31
2022-09-07T12:17:05.127Z,77.29
2022-09-07T12:19:34.683Z,77.37
2022-09-07T12:22:03.892Z,77.09
2022-09-07T12:24:43.977Z,77.62
2022-09-07T12:27:33.010Z,77.31
2022-09-07T12:30:03.434Z,77.48
2022-09-07T12:32:53.971Z,77.55
2022-09-07T12:35:31.967Z,78.28
2022-09-07T12:38:19.573Z,78.17
2022-09-07T12:41:00.011Z,79.62
2022-09-07T12:43:51.059Z,79.25
2022-09-07T12:46:46.970Z,79.56
2022-09-07T12:49:29.008Z,81.11
2022-09-07T12:52:18.149Z,80.53
2022-09-07T12:55:28.505Z,81.39
2022-09-07T12:58:36.282Z,81.62
2022-09-07T13:01:30.514Z,81.92
2022-09-07T13:04:17.898Z,81.96
2022-09-07T13:07:13.792Z,82.17
2022-09-07T13:09:43.247Z,80.60
2022-09-07T13:12:57.230Z,79.94
2022-09-07T13:15:46.361Z,79.76
2022-09-07T13:18:31.164Z,79.23
2022-09-07T13:21:09.208Z,79.13
2022-09-07T13:23:39.908Z,78.24
2022-09-07T13:26:12.711Z,77.57
2022-09-07T13:29:02.753Z,77.72
2022-09-07T13:31:55.493Z,76.60
2022-09-07T13:34:36.740Z,76.61
2022-09-07T13:37:08.375Z,76.63
2022-09-07T13:39:47.715Z,76.06
2022-09-07T13:42:37.754Z,76.60
2022-09-07T13:45:09.416Z,76.70
2022-09-07T13:48:14.322Z,76.86
2022-09-07T13:51:11.314Z,76.98
2022-09-07T13:53:58.205Z,77.19
2022-09-07T13:56:37.582Z,77.36
2022-09-07T13:59:30.715Z,77.58
2022-09-07T14:02:00.599Z,76.90
2022-09-07T14:04:38.785Z,77.58
2022-09-07T14:07:14.752Z,77.40
2022-09-07T14:09:43.767Z,77.04
2022-09-07T14:12:23.705Z,76.72
2022-09-07T14:15:42.992Z,76.18
2022-09-07T14:18:33.193Z,76.31
2022-09-07T14:21:02.512Z,75.72
2022-09-07T14:23:34.436Z,75.17
2022-09-07T14:26:20.006Z,74.71
2022-09-07T14:28:51.471Z,74.59
2022-09-07T14:31:22.521Z,74.71
2022-09-07T14:33:59.915Z,74.96
2022-09-07T14:36:45.698Z,75.04
2022-09-07T14:39:17.894Z,75.70
2022-09-07T14:41:47.698Z,75.03
2022-09-07T14:44:30.113Z,75.73
2022-09-07T14:47:03.187Z,74.92
2022-09-07T14:49:32.319Z,74.50
2022-09-07T14:52:01.789Z,73.22
2022-09-07T14:54:34.207Z,72.69
2022-09-07T14:57:32.081Z,71.84
2022-09-07T15:00:33.753Z,71.55
2022-09-07T15:03:14.470Z,71.35
2022-09-07T15:05:54.002Z,71.23
2022-09-07T15:08:44.785Z,71.58
2022-09-07T15:11:33.197Z,71.94
2022-09-07T15:14:13.108Z,71.23
2022-09-07T15:16:46.535Z,69.84
2022-09-07T15:19:18.390Z,70.26
2022-09-07T15:21:47.577Z,71.96
2022-09-07T15:24:16.543Z,72.81
2022-09-07T15:27:06.205Z,72.23
2022-09-07T15:29:34.817Z,72.67
2022-09-07T15:32:05.195Z,72.56
2022-09-07T15:34:36.631Z,73.75
2022-09-07T15:38:01.008Z,72.49
2022-09-07T15:39:54.219Z,73.15
2022-09-07T15:45:12.301Z,71.59
2022-09-07T15:47:43.970Z,71.57
2022-09-07T15:50:15.923Z,70.45
2022-09-07T15:52:46.483Z,70.53
2022-09-07T15:55:17.394Z,70.36
2022-09-07T15:57:49.363Z,70.96
2022-09-07T16:00:19.971Z,71.32
2022-09-07T16:03:08.497Z,71.37
2022-09-07T16:05:40.987Z,71.31
2022-09-07T16:08:25.328Z,71.79
2022-09-07T16:10:55.759Z,71.86
2022-09-07T16:13:33.041Z,71.50
2022-09-07T16:16:01.686Z,72.17
2022-09-07T16:18:31.827Z,71.15
2022-09-07T16:21:13.211Z,71.24
2022-09-07T16:23:50.164Z,71.38
2022-09-07T16:26:21.081Z,70.50
2022-09-07T16:28:51.536Z,68.83
2022-09-07T16:31:24.212Z,67.50
2022-09-07T16:33:53.852Z,66.81
2022-09-07T16:36:25.847Z,65.70
2022-09-07T16:39:01.956Z,66.50
2022-09-07T16:41:35.722Z,66.56
2022-09-07T16:44:03.931Z,66.61
2022-09-07T16:46:34.190Z,65.24
2022-09-07T16:49:03.280Z,65.67
2022-09-07T16:51:31.833Z,65.44
2022-09-07T16:54:00.687Z,66.93
2022-09-07T16:56:34.574Z,66.88
2022-09-07T16:59:07.988Z,67.01
2022-09-07T17:01:39.312Z,66.82
2022-09-07T17:04:11.025Z,66.57
2022-09-07T17:06:40.949Z,65.47
2022-09-07T17:09:10.285Z,66.23
2022-09-07T17:11:39.287Z,66.26
2022-09-07T17:14:08.624Z,66.31
2022-09-07T17:16:39.815Z,65.21
2022-09-07T17:22:01.949Z,65.79
2022-09-07T17:24:32.540Z,65.62
2022-09-07T17:27:01.622Z,64.84
2022-09-07T17:29:32.115Z,64.33
2022-09-07T17:34:51.656Z,62.91
2022-09-07T17:37:20.125Z,61.82
2022-09-07T17:39:48.820Z,62.17
2022-09-07T17:42:17.589Z,60.37
2022-09-07T17:44:46.301Z,61.24
2022-09-07T17:47:14.327Z,60.18
2022-09-07T17:49:43.004Z,59.86
2022-09-07T17:52:11.624Z,59.10
2022-09-07T17:54:41.897Z,59.80
2022-09-07T17:57:10.646Z,58.85
2022-09-07T18:02:27.792Z,58.55
2022-09-07T18:04:56.472Z,59.30
2022-09-07T18:07:25.151Z,59.13
2022-09-07T18:09:53.973Z,59.41
2022-09-07T18:12:23.566Z,59.72
2022-09-07T18:14:52.144Z,59.53
2022-09-07T18:17:20.816Z,60.17
2022-09-07T18:19:49.624Z,60.25
2022-09-07T18:22:18.189Z,60.48
2022-09-07T18:24:46.844Z,61.46
2022-09-07T18:27:15.540Z,61.36
2022-09-07T18:29:44.718Z,61.56
2022-09-07T18:32:13.358Z,61.42
2022-09-07T18:34:43.998Z,63.37
2022-09-07T18:37:16.217Z,63.38
2022-09-07T18:39:44.578Z,64.18
2022-09-07T18:42:13.197Z,63.52
2022-09-07T18:47:31.583Z,63.78
2022-09-07T18:50:03.935Z,62.38
2022-09-07T18:55:20.358Z,63.30
2022-09-07T18:57:49.337Z,64.80
2022-09-07T19:00:18.105Z,64.17
2022-09-07T19:02:51.587Z,65.45
2022-09-07T19:08:09.615Z,65.96
2022-09-07T19:10:39.128Z,65.83
2022-09-07T19:13:07.737Z,66.02
2022-09-07T19:15:37.878Z,66.04
2022-09-07T19:18:07.922Z,66.74
2022-09-07T19:20:37.461Z,66.63
2022-09-07T19:23:06.686Z,66.96
2022-09-07T19:25:35.291Z,67.13
2022-09-07T19:28:04.046Z,67.79
2022-09-07T19:30:35.245Z,67.98
2022-09-07T19:33:04.684Z,68.27
2022-09-07T19:35:36.991Z,68.13
2022-09-07T19:38:06.047Z,68.40
2022-09-07T19:40:34.738Z,68.43
2022-09-07T19:43:03.521Z,67.95
2022-09-07T19:45:32.877Z,68.83
2022-09-07T19:48:02.013Z,68.36
2022-09-07T19:50:30.590Z,67.69
2022-09-07T19:52:59.452Z,66.15
2022-09-07T19:55:28.724Z,65.68
2022-09-07T19:57:57.369Z,64.56
2022-09-07T20:00:26.258Z,65.98
2022-09-07T20:02:55.447Z,64.17
2022-09-07T20:05:24.474Z,65.24
2022-09-07T20:07:53.135Z,65.71
2022-09-07T20:10:21.743Z,65.87
2022-09-07T20:12:50.461Z,66.94
2022-09-07T20:15:19.171Z,65.60
2022-09-07T20:17:47.740Z,66.74
2022-09-07T20:20:17.337Z,66.38
2022-09-07T20:22:46.099Z,66.77
2022-09-07T20:25:14.929Z,67.55
2022-09-07T20:27:43.759Z,67.36
2022-09-07T20:30:13.075Z,67.11
2022-09-07T20:32:41.827Z,67.39
2022-09-07T20:35:10.896Z,65.33
2022-09-07T20:37:39.314Z,66.43
2022-09-07T20:40:08.857Z,65.38
2022-09-07T20:42:37.303Z,65.99
2022-09-07T20:45:06.259Z,66.55
2022-09-07T20:47:35.282Z,62.68
2022-09-07T20:50:03.948Z,65.70
2022-09-07T20:52:32.558Z,62.96
2022-09-07T20:55:01.206Z,62.80
2022-09-07T20:57:29.357Z,61.11
2022-09-07T20:59:57.997Z,64.65
2022-09-07T21:02:26.389Z,63.58
2022-09-07T21:04:55.061Z,63.00
2022-09-07T21:07:23.637Z,61.08
2022-09-07T21:09:52.309Z,62.71
2022-09-07T21:12:20.979Z,61.75
2022-09-07T21:14:49.394Z,63.42
2022-09-07T21:17:18.017Z,63.97
2022-09-07T21:19:46.641Z,62.67
2022-09-07T21:22:15.737Z,62.33
2022-09-07T21:24:44.339Z,61.31
2022-09-07T21:27:13.010Z,60.96
2022-09-07T21:29:41.630Z,60.16
2022-09-07T21:32:10.190Z,61.65
2022-09-07T21:34:38.951Z,61.42
2022-09-07T21:37:07.318Z,60.76
2022-09-07T21:39:35.938Z,59.76
2022-09-07T21:42:05.815Z,60.47
2022-09-07T21:44:34.385Z,61.29
2022-09-07T21:47:03.077Z,61.51
2022-09-07T21:49:31.479Z,61.33
2022-09-07T21:52:00.117Z,62.22
2022-09-07T21:54:28.684Z,63.79
2022-09-07T21:56:57.262Z,61.84
2022-09-07T21:59:25.876Z,61.55
2022-09-07T22:01:54.544Z,60.23
2022-09-07T22:04:23.512Z,60.23
2022-09-07T22:06:51.871Z,59.74
2022-09-07T22:09:20.268Z,59.37
2022-09-07T22:11:48.623Z,59.07
2022-09-07T22:14:17.049Z,59.53
2022-09-07T22:16:46.167Z,60.07
2022-09-07T22:19:14.837Z,59.81
2022-09-07T22:21:43.811Z,59.29
2022-09-07T22:24:16.364Z,60.13
2022-09-07T22:26:44.976Z,59.91
2022-09-07T22:29:14.512Z,60.41
2022-09-07T22:31:43.670Z,60.99
2022-09-07T22:34:12.981Z,61.48
2022-09-07T22:36:45.047Z,61.08
2022-09-07T22:39:16.922Z,61.37
2022-09-07T22:41:46.828Z,61.35
2022-09-07T22:44:18.169Z,61.24
2022-09-07T22:46:48.430Z,61.06
2022-09-07T22:49:18.254Z,61.04
2022-09-07T22:51:47.570Z,59.47
2022-09-07T22:54:16.208Z,58.94
2022-09-07T22:56:44.847Z,57.94
2022-09-07T22:59:15.121Z,59.02
2022-09-07T23:01:43.732Z,58.59
2022-09-07T23:04:14.198Z,59.27
2022-09-07T23:06:45.006Z,59.23
2022-09-07T23:09:16.880Z,58.13
2022-09-07T23:11:47.481Z,57.32
2022-09-07T23:14:19.185Z,58.15
2022-09-07T23:16:48.264Z,57.79
2022-09-07T23:19:20.632Z,58.06
2022-09-07T23:21:52.905Z,57.85
2022-09-07T23:24:21.802Z,58.28
2022-09-07T23:26:50.868Z,56.93
2022-09-07T23:29:22.028Z,57.87
2022-09-07T23:31:50.670Z,56.88
2022-09-07T23:34:19.409Z,57.37
2022-09-07T23:36:48.041Z,56.25
2022-09-07T23:39:16.664Z,54.77
2022-09-07T23:41:45.239Z,52.55
2022-09-07T23:44:13.917Z,52.72
2022-09-07T23:46:42.561Z,53.98
2022-09-07T23:49:11.183Z,53.54
2022-09-07T23:51:39.958Z,53.33
2022-09-07T23:54:08.678Z,53.26
2022-09-07T23:56:39.216Z,53.70
2022-09-07T23:59:07.633Z,55.21
